sensor_id;sensor_type;location;lat;lon;timestamp;P1;durP1;ratioP1;P2;durP2;ratioP2
29732;SDS011;16643;43.158;25.302;2022-11-20T00:00:43;9.65;;;6.07;;
29732;SDS011;16643;43.158;25.302;2022-11-20T00:03:08;12.00;;;7.50;;
29732;SDS011;16643;43.158;25.302;2022-11-20T00:05:34;14.15;;;7.57;;
29732;SDS011;16643;43.158;25.302;2022-11-20T00:07:59;10.63;;;6.25;;
29732;SDS011;16643;43.158;25.302;2022-11-20T00:10:25;13.45;;;6.80;;
29732;SDS011;16643;43.158;25.302;2022-11-20T00:12:51;13.57;;;6.43;;
29732;SDS011;16643;43.158;25.302;2022-11-20T00:15:17;14.55;;;6.95;;
29732;SDS011;16643;43.158;25.302;2022-11-20T00:17:42;12.05;;;5.80;;
29732;SDS011;16643;43.158;25.302;2022-11-20T00:20:08;16.05;;;5.50;;
29732;SDS011;16643;43.158;25.302;2022-11-20T00:22:34;11.85;;;5.50;;
29732;SDS011;16643;43.158;25.302;2022-11-20T00:25:00;14.38;;;6.05;;
29732;SDS011;16643;43.158;25.302;2022-11-20T00:27:26;13.93;;;5.93;;
29732;SDS011;16643;43.158;25.302;2022-11-20T00:29:51;12.13;;;4.65;;
29732;SDS011;16643;43.158;25.302;2022-11-20T00:32:17;11.77;;;4.53;;
29732;SDS011;16643;43.158;25.302;2022-11-20T00:34:42;14.40;;;5.75;;
29732;SDS011;16643;43.158;25.302;2022-11-20T00:37:12;13.15;;;5.93;;
29732;SDS011;16643;43.158;25.302;2022-11-20T00:39:38;11.68;;;5.97;;
29732;SDS011;16643;43.158;25.302;2022-11-20T00:42:03;8.10;;;4.95;;
29732;SDS011;16643;43.158;25.302;2022-11-20T00:44:29;17.85;;;6.20;;
29732;SDS011;16643;43.158;25.302;2022-11-20T00:46:55;12.85;;;5.88;;
29732;SDS011;16643;43.158;25.302;2022-11-20T00:49:20;17.42;;;5.95;;
29732;SDS011;16643;43.158;25.302;2022-11-20T00:51:46;15.85;;;6.68;;
29732;SDS011;16643;43.158;25.302;2022-11-20T00:54:12;12.20;;;5.53;;
29732;SDS011;16643;43.158;25.302;2022-11-20T00:56:37;12.23;;;5.20;;
29732;SDS011;16643;43.158;25.302;2022-11-20T00:59:03;11.98;;;6.30;;
29732;SDS011;16643;43.158;25.302;2022-11-20T01:01:29;12.40;;;6.40;;
29732;SDS011;16643;43.158;25.302;2022-11-20T01:03:55;17.42;;;7.07;;
29732;SDS011;16643;43.158;25.302;2022-11-20T01:06:24;12.55;;;6.28;;
29732;SDS011;16643;43.158;25.302;2022-11-20T01:09:02;15.77;;;5.88;;
29732;SDS011;16643;43.158;25.302;2022-11-20T01:11:31;17.85;;;5.57;;
29732;SDS011;16643;43.158;25.302;2022-11-20T01:13:58;17.38;;;5.47;;
29732;SDS011;16643;43.158;25.302;2022-11-20T01:16:27;12.63;;;5.37;;
29732;SDS011;16643;43.158;25.302;2022-11-20T01:18:57;12.63;;;5.00;;
29732;SDS011;16643;43.158;25.302;2022-11-20T01:21:26;14.15;;;4.93;;
29732;SDS011;16643;43.158;25.302;2022-11-20T01:23:54;17.77;;;4.72;;
29732;SDS011;16643;43.158;25.302;2022-11-20T01:26:21;14.55;;;4.72;;
29732;SDS011;16643;43.158;25.302;2022-11-20T01:28:49;8.85;;;4.82;;
29732;SDS011;16643;43.158;25.302;2022-11-20T01:31:19;13.18;;;4.35;;
29732;SDS011;16643;43.158;25.302;2022-11-20T01:33:47;12.32;;;3.92;;
29732;SDS011;16643;43.158;25.302;2022-11-20T01:38:41;11.35;;;4.00;;
29732;SDS011;16643;43.158;25.302;2022-11-20T01:41:08;12.65;;;4.57;;
29732;SDS011;16643;43.158;25.302;2022-11-20T01:43:35;14.32;;;4.20;;
29732;SDS011;16643;43.158;25.302;2022-11-20T01:48:33;9.27;;;3.53;;
29732;SDS011;16643;43.158;25.302;2022-11-20T01:51:12;15.45;;;4.80;;
29732;SDS011;16643;43.158;25.302;2022-11-20T01:53:44;15.75;;;4.10;;
29732;SDS011;16643;43.158;25.302;2022-11-20T01:56:11;16.55;;;4.35;;
29732;SDS011;16643;43.158;25.302;2022-11-20T01:58:39;14.13;;;4.40;;
29732;SDS011;16643;43.158;25.302;2022-11-20T02:01:12;10.18;;;3.80;;
29732;SDS011;16643;43.158;25.302;2022-11-20T02:03:38;15.52;;;3.85;;
29732;SDS011;16643;43.158;25.302;2022-11-20T02:08:48;11.48;;;4.00;;
29732;SDS011;16643;43.158;25.302;2022-11-20T02:11:14;9.93;;;3.85;;
29732;SDS011;16643;43.158;25.302;2022-11-20T02:13:40;12.63;;;4.57;;
29732;SDS011;16643;43.158;25.302;2022-11-20T02:16:16;12.35;;;4.80;;
29732;SDS011;16643;43.158;25.302;2022-11-20T02:18:51;12.13;;;4.32;;
29732;SDS011;16643;43.158;25.302;2022-11-20T02:24:03;11.95;;;3.58;;
29732;SDS011;16643;43.158;25.302;2022-11-20T02:26:45;9.88;;;3.85;;
29732;SDS011;16643;43.158;25.302;2022-11-20T02:29:13;12.85;;;3.40;;
29732;SDS011;16643;43.158;25.302;2022-11-20T02:31:42;15.25;;;3.30;;
29732;SDS011;16643;43.158;25.302;2022-11-20T02:34:09;11.90;;;3.38;;
29732;SDS011;16643;43.158;25.302;2022-11-20T02:36:35;15.18;;;3.45;;
29732;SDS011;16643;43.158;25.302;2022-11-20T02:39:04;12.15;;;3.33;;
29732;SDS011;16643;43.158;25.302;2022-11-20T02:41:35;10.18;;;3.13;;
29732;SDS011;16643;43.158;25.302;2022-11-20T02:44:01;5.88;;;2.60;;
29732;SDS011;16643;43.158;25.302;2022-11-20T02:46:28;11.07;;;2.47;;
29732;SDS011;16643;43.158;25.302;2022-11-20T02:48:55;7.95;;;2.53;;
29732;SDS011;16643;43.158;25.302;2022-11-20T02:51:20;10.25;;;2.58;;
29732;SDS011;16643;43.158;25.302;2022-11-20T02:53:46;10.88;;;2.97;;
29732;SDS011;16643;43.158;25.302;2022-11-20T02:56:11;7.22;;;2.53;;
29732;SDS011;16643;43.158;25.302;2022-11-20T02:58:37;10.25;;;2.60;;
29732;SDS011;16643;43.158;25.302;2022-11-20T03:01:03;9.07;;;2.35;;
29732;SDS011;16643;43.158;25.302;2022-11-20T03:03:28;8.82;;;3.38;;
29732;SDS011;16643;43.158;25.302;2022-11-20T03:05:54;9.80;;;2.88;;
29732;SDS011;16643;43.158;25.302;2022-11-20T03:08:20;6.75;;;2.53;;
29732;SDS011;16643;43.158;25.302;2022-11-20T03:10:45;9.98;;;2.97;;
29732;SDS011;16643;43.158;25.302;2022-11-20T03:13:11;11.95;;;3.28;;
29732;SDS011;16643;43.158;25.302;2022-11-20T03:15:37;9.38;;;2.60;;
29732;SDS011;16643;43.158;25.302;2022-11-20T03:18:02;8.77;;;3.10;;
29732;SDS011;16643;43.158;25.302;2022-11-20T03:20:28;15.15;;;3.40;;
29732;SDS011;16643;43.158;25.302;2022-11-20T03:22:54;12.32;;;3.17;;
29732;SDS011;16643;43.158;25.302;2022-11-20T03:25:20;7.47;;;2.58;;
29732;SDS011;16643;43.158;25.302;2022-11-20T03:27:46;9.10;;;3.08;;
29732;SDS011;16643;43.158;25.302;2022-11-20T03:30:12;11.55;;;3.17;;
29732;SDS011;16643;43.158;25.302;2022-11-20T03:32:38;11.18;;;2.95;;
29732;SDS011;16643;43.158;25.302;2022-11-20T03:35:03;9.35;;;3.22;;
29732;SDS011;16643;43.158;25.302;2022-11-20T03:37:29;10.23;;;2.78;;
29732;SDS011;16643;43.158;25.302;2022-11-20T03:39:55;13.18;;;3.22;;
29732;SDS011;16643;43.158;25.302;2022-11-20T03:42:20;7.30;;;2.50;;
29732;SDS011;16643;43.158;25.302;2022-11-20T03:45:05;11.75;;;3.20;;
29732;SDS011;16643;43.158;25.302;2022-11-20T03:47:30;8.32;;;2.50;;
29732;SDS011;16643;43.158;25.302;2022-11-20T03:49:56;8.57;;;3.25;;
29732;SDS011;16643;43.158;25.302;2022-11-20T03:52:22;8.73;;;2.92;;
29732;SDS011;16643;43.158;25.302;2022-11-20T03:54:47;8.82;;;2.63;;
29732;SDS011;16643;43.158;25.302;2022-11-20T03:57:13;14.50;;;4.03;;
29732;SDS011;16643;43.158;25.302;2022-11-20T03:59:38;18.42;;;2.95;;
29732;SDS011;16643;43.158;25.302;2022-11-20T04:02:04;15.25;;;2.53;;
29732;SDS011;16643;43.158;25.302;2022-11-20T04:04:30;11.20;;;2.60;;
29732;SDS011;16643;43.158;25.302;2022-11-20T04:06:55;8.98;;;2.95;;
29732;SDS011;16643;43.158;25.302;2022-11-20T04:09:21;9.10;;;2.05;;
29732;SDS011;16643;43.158;25.302;2022-11-20T04:11:46;4.28;;;2.65;;
29732;SDS011;16643;43.158;25.302;2022-11-20T04:14:13;8.00;;;2.42;;
29732;SDS011;16643;43.158;25.302;2022-11-20T04:16:40;12.57;;;2.72;;
29732;SDS011;16643;43.158;25.302;2022-11-20T04:19:08;6.78;;;2.40;;
29732;SDS011;16643;43.158;25.302;2022-11-20T04:21:39;8.80;;;3.10;;
29732;SDS011;16643;43.158;25.302;2022-11-20T04:24:05;5.65;;;2.33;;
29732;SDS011;16643;43.158;25.302;2022-11-20T04:26:32;8.40;;;2.70;;
29732;SDS011;16643;43.158;25.302;2022-11-20T04:28:57;6.80;;;2.05;;
29732;SDS011;16643;43.158;25.302;2022-11-20T04:31:24;11.13;;;2.90;;
29732;SDS011;16643;43.158;25.302;2022-11-20T04:33:52;6.53;;;2.35;;
29732;SDS011;16643;43.158;25.302;2022-11-20T04:36:18;11.02;;;2.63;;
29732;SDS011;16643;43.158;25.302;2022-11-20T04:38:57;8.63;;;2.80;;
29732;SDS011;16643;43.158;25.302;2022-11-20T04:41:25;8.95;;;2.35;;
29732;SDS011;16643;43.158;25.302;2022-11-20T04:43:54;15.00;;;2.47;;
29732;SDS011;16643;43.158;25.302;2022-11-20T04:46:31;10.45;;;2.38;;
29732;SDS011;16643;43.158;25.302;2022-11-20T04:48:58;5.53;;;2.58;;
29732;SDS011;16643;43.158;25.302;2022-11-20T04:51:24;11.45;;;2.88;;
29732;SDS011;16643;43.158;25.302;2022-11-20T04:53:50;12.77;;;3.53;;
29732;SDS011;16643;43.158;25.302;2022-11-20T04:56:16;7.97;;;3.08;;
29732;SDS011;16643;43.158;25.302;2022-11-20T04:58:42;8.43;;;3.65;;
29732;SDS011;16643;43.158;25.302;2022-11-20T05:03:38;7.47;;;3.65;;
29732;SDS011;16643;43.158;25.302;2022-11-20T05:06:05;6.75;;;3.40;;
29732;SDS011;16643;43.158;25.302;2022-11-20T05:08:32;16.80;;;5.32;;
29732;SDS011;16643;43.158;25.302;2022-11-20T05:13:27;9.05;;;4.35;;
29732;SDS011;16643;43.158;25.302;2022-11-20T05:15:52;11.02;;;5.72;;
29732;SDS011;16643;43.158;25.302;2022-11-20T05:18:18;10.48;;;6.53;;
29732;SDS011;16643;43.158;25.302;2022-11-20T05:20:44;12.45;;;8.02;;
29732;SDS011;16643;43.158;25.302;2022-11-20T05:23:09;11.20;;;7.72;;
29732;SDS011;16643;43.158;25.302;2022-11-20T05:25:35;13.05;;;10.10;;
29732;SDS011;16643;43.158;25.302;2022-11-20T05:28:00;16.90;;;10.43;;
29732;SDS011;16643;43.158;25.302;2022-11-20T05:30:26;15.82;;;10.32;;
29732;SDS011;16643;43.158;25.302;2022-11-20T05:32:52;18.27;;;11.45;;
29732;SDS011;16643;43.158;25.302;2022-11-20T05:35:17;15.40;;;10.00;;
29732;SDS011;16643;43.158;25.302;2022-11-20T05:37:43;16.52;;;11.63;;
29732;SDS011;16643;43.158;25.302;2022-11-20T05:40:08;14.85;;;9.80;;
29732;SDS011;16643;43.158;25.302;2022-11-20T05:42:35;15.95;;;10.63;;
29732;SDS011;16643;43.158;25.302;2022-11-20T05:45:02;18.73;;;11.60;;
29732;SDS011;16643;43.158;25.302;2022-11-20T05:47:32;18.55;;;12.05;;
29732;SDS011;16643;43.158;25.302;2022-11-20T05:49:59;19.17;;;12.80;;
29732;SDS011;16643;43.158;25.302;2022-11-20T05:52:28;19.40;;;13.02;;
29732;SDS011;16643;43.158;25.302;2022-11-20T05:54:55;17.65;;;11.90;;
29732;SDS011;16643;43.158;25.302;2022-11-20T05:57:20;16.42;;;11.63;;
29732;SDS011;16643;43.158;25.302;2022-11-20T05:59:46;18.35;;;12.18;;
29732;SDS011;16643;43.158;25.302;2022-11-20T06:02:12;30.85;;;13.68;;
29732;SDS011;16643;43.158;25.302;2022-11-20T06:04:37;19.63;;;12.65;;
29732;SDS011;16643;43.158;25.302;2022-11-20T06:07:04;22.80;;;13.05;;
29732;SDS011;16643;43.158;25.302;2022-11-20T06:09:30;17.63;;;12.15;;
29732;SDS011;16643;43.158;25.302;2022-11-20T06:11:55;20.95;;;14.05;;
29732;SDS011;16643;43.158;25.302;2022-11-20T06:14:21;21.48;;;12.93;;
29732;SDS011;16643;43.158;25.302;2022-11-20T06:16:47;22.20;;;14.15;;
29732;SDS011;16643;43.158;25.302;2022-11-20T06:19:12;22.95;;;15.80;;
29732;SDS011;16643;43.158;25.302;2022-11-20T06:21:38;22.38;;;14.07;;
29732;SDS011;16643;43.158;25.302;2022-11-20T06:24:04;27.15;;;15.98;;
29732;SDS011;16643;43.158;25.302;2022-11-20T06:26:30;22.08;;;14.27;;
29732;SDS011;16643;43.158;25.302;2022-11-20T06:28:56;23.65;;;15.35;;
29732;SDS011;16643;43.158;25.302;2022-11-20T06:31:22;23.60;;;15.80;;
29732;SDS011;16643;43.158;25.302;2022-11-20T06:33:49;27.90;;;16.75;;
29732;SDS011;16643;43.158;25.302;2022-11-20T06:36:16;24.52;;;15.10;;
29732;SDS011;16643;43.158;25.302;2022-11-20T06:38:42;23.95;;;14.95;;
29732;SDS011;16643;43.158;25.302;2022-11-20T06:41:10;24.08;;;14.77;;
29732;SDS011;16643;43.158;25.302;2022-11-20T06:43:41;21.75;;;14.15;;
29732;SDS011;16643;43.158;25.302;2022-11-20T06:46:06;26.40;;;15.10;;
29732;SDS011;16643;43.158;25.302;2022-11-20T06:48:34;23.33;;;15.17;;
29732;SDS011;16643;43.158;25.302;2022-11-20T06:50:59;25.95;;;15.20;;
29732;SDS011;16643;43.158;25.302;2022-11-20T06:53:28;26.35;;;16.58;;
29732;SDS011;16643;43.158;25.302;2022-11-20T06:55:55;29.98;;;18.52;;
29732;SDS011;16643;43.158;25.302;2022-11-20T06:58:21;31.33;;;19.73;;
29732;SDS011;16643;43.158;25.302;2022-11-20T07:00:47;33.33;;;19.33;;
29732;SDS011;16643;43.158;25.302;2022-11-20T07:03:12;33.67;;;19.83;;
29732;SDS011;16643;43.158;25.302;2022-11-20T07:05:38;35.30;;;20.92;;
29732;SDS011;16643;43.158;25.302;2022-11-20T07:08:05;32.47;;;20.30;;
29732;SDS011;16643;43.158;25.302;2022-11-20T07:10:31;35.05;;;20.60;;
29732;SDS011;16643;43.158;25.302;2022-11-20T07:12:57;39.40;;;21.92;;
29732;SDS011;16643;43.158;25.302;2022-11-20T07:15:24;37.88;;;19.33;;
29732;SDS011;16643;43.158;25.302;2022-11-20T07:17:50;34.05;;;19.52;;
29732;SDS011;16643;43.158;25.302;2022-11-20T07:20:17;32.58;;;19.80;;
29732;SDS011;16643;43.158;25.302;2022-11-20T07:22:42;36.28;;;20.35;;
29732;SDS011;16643;43.158;25.302;2022-11-20T07:25:09;37.63;;;20.83;;
29732;SDS011;16643;43.158;25.302;2022-11-20T07:27:35;38.25;;;21.40;;
29732;SDS011;16643;43.158;25.302;2022-11-20T07:30:01;38.47;;;19.45;;
29732;SDS011;16643;43.158;25.302;2022-11-20T07:32:27;36.20;;;20.05;;
29732;SDS011;16643;43.158;25.302;2022-11-20T07:34:53;40.65;;;21.88;;
29732;SDS011;16643;43.158;25.302;2022-11-20T07:37:19;38.08;;;21.15;;
29732;SDS011;16643;43.158;25.302;2022-11-20T07:39:44;41.47;;;19.88;;
29732;SDS011;16643;43.158;25.302;2022-11-20T07:42:10;47.65;;;21.73;;
29732;SDS011;16643;43.158;25.302;2022-11-20T07:44:37;39.10;;;20.92;;
29732;SDS011;16643;43.158;25.302;2022-11-20T07:47:03;38.22;;;20.63;;
29732;SDS011;16643;43.158;25.302;2022-11-20T07:49:29;41.92;;;20.95;;
29732;SDS011;16643;43.158;25.302;2022-11-20T07:51:55;47.22;;;20.35;;
29732;SDS011;16643;43.158;25.302;2022-11-20T07:54:20;40.45;;;21.17;;
29732;SDS011;16643;43.158;25.302;2022-11-20T07:56:47;41.05;;;22.23;;
29732;SDS011;16643;43.158;25.302;2022-11-20T07:59:13;41.65;;;19.73;;
29732;SDS011;16643;43.158;25.302;2022-11-20T08:01:39;40.67;;;20.15;;
29732;SDS011;16643;43.158;25.302;2022-11-20T08:04:05;39.33;;;20.75;;
29732;SDS011;16643;43.158;25.302;2022-11-20T08:06:31;40.88;;;20.38;;
29732;SDS011;16643;43.158;25.302;2022-11-20T08:08:57;128.55;;;25.77;;
29732;SDS011;16643;43.158;25.302;2022-11-20T08:11:23;44.35;;;21.23;;
29732;SDS011;16643;43.158;25.302;2022-11-20T08:14:07;40.42;;;21.23;;
29732;SDS011;16643;43.158;25.302;2022-11-20T08:16:45;35.20;;;20.30;;
29732;SDS011;16643;43.158;25.302;2022-11-20T08:19:12;48.60;;;21.17;;
29732;SDS011;16643;43.158;25.302;2022-11-20T08:21:39;33.45;;;20.08;;
29732;SDS011;16643;43.158;25.302;2022-11-20T08:24:06;41.05;;;20.77;;
29732;SDS011;16643;43.158;25.302;2022-11-20T08:26:33;36.00;;;19.67;;
29732;SDS011;16643;43.158;25.302;2022-11-20T08:28:59;32.20;;;18.38;;
29732;SDS011;16643;43.158;25.302;2022-11-20T08:31:25;34.85;;;19.60;;
29732;SDS011;16643;43.158;25.302;2022-11-20T08:33:52;38.78;;;21.00;;
29732;SDS011;16643;43.158;25.302;2022-11-20T08:36:18;33.78;;;19.55;;
29732;SDS011;16643;43.158;25.302;2022-11-20T08:38:52;35.60;;;19.05;;
29732;SDS011;16643;43.158;25.302;2022-11-20T08:41:19;34.95;;;19.75;;
29732;SDS011;16643;43.158;25.302;2022-11-20T08:44:07;32.70;;;20.25;;
29732;SDS011;16643;43.158;25.302;2022-11-20T08:49:03;36.80;;;19.77;;
29732;SDS011;16643;43.158;25.302;2022-11-20T08:51:29;35.00;;;21.13;;
29732;SDS011;16643;43.158;25.302;2022-11-20T08:53:57;38.93;;;21.23;;
29732;SDS011;16643;43.158;25.302;2022-11-20T08:56:23;35.85;;;20.45;;
29732;SDS011;16643;43.158;25.302;2022-11-20T08:58:49;36.90;;;20.42;;
29732;SDS011;16643;43.158;25.302;2022-11-20T09:01:16;36.10;;;19.95;;
29732;SDS011;16643;43.158;25.302;2022-11-20T09:03:42;33.03;;;18.42;;
29732;SDS011;16643;43.158;25.302;2022-11-20T09:06:07;35.65;;;20.60;;
29732;SDS011;16643;43.158;25.302;2022-11-20T09:08:33;35.47;;;20.13;;
29732;SDS011;16643;43.158;25.302;2022-11-20T09:11:01;29.98;;;19.48;;
29732;SDS011;16643;43.158;25.302;2022-11-20T09:13:27;32.25;;;18.17;;
29732;SDS011;16643;43.158;25.302;2022-11-20T09:16:00;30.35;;;17.60;;
29732;SDS011;16643;43.158;25.302;2022-11-20T09:18:28;38.50;;;24.25;;
29732;SDS011;16643;43.158;25.302;2022-11-20T09:20:59;32.08;;;20.02;;
29732;SDS011;16643;43.158;25.302;2022-11-20T09:23:27;42.60;;;23.23;;
29732;SDS011;16643;43.158;25.302;2022-11-20T09:25:56;37.75;;;21.33;;
29732;SDS011;16643;43.158;25.302;2022-11-20T09:28:27;42.17;;;23.67;;
29732;SDS011;16643;43.158;25.302;2022-11-20T09:33:18;33.85;;;18.15;;
29732;SDS011;16643;43.158;25.302;2022-11-20T09:35:44;28.08;;;16.40;;
29732;SDS011;16643;43.158;25.302;2022-11-20T09:38:09;31.10;;;17.73;;
29732;SDS011;16643;43.158;25.302;2022-11-20T09:40:37;28.58;;;17.27;;
29732;SDS011;16643;43.158;25.302;2022-11-20T09:46:10;27.45;;;16.67;;
29732;SDS011;16643;43.158;25.302;2022-11-20T09:54:26;26.27;;;16.63;;
29732;SDS011;16643;43.158;25.302;2022-11-20T09:57:11;29.67;;;18.10;;
29732;SDS011;16643;43.158;25.302;2022-11-20T09:59:42;31.33;;;19.98;;
29732;SDS011;16643;43.158;25.302;2022-11-20T10:04:53;28.27;;;18.17;;
29732;SDS011;16643;43.158;25.302;2022-11-20T10:07:26;28.13;;;17.15;;
29732;SDS011;16643;43.158;25.302;2022-11-20T10:10:28;28.33;;;17.30;;
29732;SDS011;16643;43.158;25.302;2022-11-20T10:18:36;34.85;;;21.58;;
29732;SDS011;16643;43.158;25.302;2022-11-20T10:26:46;44.65;;;25.27;;
29732;SDS011;16643;43.158;25.302;2022-11-20T10:29:57;47.45;;;25.20;;
29732;SDS011;16643;43.158;25.302;2022-11-20T10:32:18;45.40;;;25.90;;
29732;SDS011;16643;43.158;25.302;2022-11-20T10:34:48;43.10;;;24.05;;
29732;SDS011;16643;43.158;25.302;2022-11-20T10:37:27;45.30;;;26.92;;
29732;SDS011;16643;43.158;25.302;2022-11-20T10:45:57;44.08;;;24.98;;
29732;SDS011;16643;43.158;25.302;2022-11-20T10:48:27;39.28;;;23.08;;
29732;SDS011;16643;43.158;25.302;2022-11-20T10:56:11;46.20;;;26.65;;
29732;SDS011;16643;43.158;25.302;2022-11-20T11:01:41;46.10;;;27.60;;
29732;SDS011;16643;43.158;25.302;2022-11-20T11:07:09;39.55;;;26.15;;
29732;SDS011;16643;43.158;25.302;2022-11-20T11:09:43;43.20;;;24.42;;
29732;SDS011;16643;43.158;25.302;2022-11-20T11:12:13;48.33;;;26.30;;
29732;SDS011;16643;43.158;25.302;2022-11-20T11:14:42;44.90;;;26.25;;
29732;SDS011;16643;43.158;25.302;2022-11-20T11:20:36;44.58;;;26.60;;
29732;SDS011;16643;43.158;25.302;2022-11-20T11:27:59;46.28;;;26.60;;
29732;SDS011;16643;43.158;25.302;2022-11-20T11:30:28;49.25;;;28.80;;
29732;SDS011;16643;43.158;25.302;2022-11-20T11:33:06;48.75;;;27.17;;
29732;SDS011;16643;43.158;25.302;2022-11-20T11:35:46;50.22;;;28.40;;
29732;SDS011;16643;43.158;25.302;2022-11-20T11:38:15;53.85;;;29.23;;
29732;SDS011;16643;43.158;25.302;2022-11-20T11:40:44;48.03;;;27.42;;
29732;SDS011;16643;43.158;25.302;2022-11-20T11:43:49;49.58;;;28.40;;
29732;SDS011;16643;43.158;25.302;2022-11-20T11:46:30;48.90;;;28.92;;
29732;SDS011;16643;43.158;25.302;2022-11-20T11:54:45;54.08;;;29.30;;
29732;SDS011;16643;43.158;25.302;2022-11-20T11:57:18;57.92;;;31.30;;
29732;SDS011;16643;43.158;25.302;2022-11-20T11:59:56;55.10;;;30.10;;
29732;SDS011;16643;43.158;25.302;2022-11-20T12:05:37;68.88;;;28.80;;
29732;SDS011;16643;43.158;25.302;2022-11-20T12:08:13;58.85;;;27.80;;
29732;SDS011;16643;43.158;25.302;2022-11-20T12:15:59;56.08;;;27.30;;
29732;SDS011;16643;43.158;25.302;2022-11-20T12:18:26;244.73;;;35.72;;
29732;SDS011;16643;43.158;25.302;2022-11-20T12:26:37;80.80;;;32.25;;
29732;SDS011;16643;43.158;25.302;2022-11-20T12:31:42;72.95;;;29.67;;
29732;SDS011;16643;43.158;25.302;2022-11-20T12:54:30;42.40;;;23.33;;
29732;SDS011;16643;43.158;25.302;2022-11-20T13:08:08;54.08;;;26.80;;
29732;SDS011;16643;43.158;25.302;2022-11-20T13:10:52;57.03;;;28.80;;
29732;SDS011;16643;43.158;25.302;2022-11-20T13:19:02;57.40;;;29.20;;
29732;SDS011;16643;43.158;25.302;2022-11-20T13:21:39;61.00;;;29.33;;
29732;SDS011;16643;43.158;25.302;2022-11-20T13:24:05;52.13;;;27.08;;
29732;SDS011;16643;43.158;25.302;2022-11-20T13:26:32;54.53;;;27.23;;
29732;SDS011;16643;43.158;25.302;2022-11-20T13:29:04;50.58;;;26.88;;
29732;SDS011;16643;43.158;25.302;2022-11-20T13:31:36;53.53;;;28.45;;
29732;SDS011;16643;43.158;25.302;2022-11-20T13:34:11;52.15;;;27.67;;
29732;SDS011;16643;43.158;25.302;2022-11-20T13:36:48;51.08;;;25.88;;
29732;SDS011;16643;43.158;25.302;2022-11-20T13:39:23;54.03;;;28.08;;
29732;SDS011;16643;43.158;25.302;2022-11-20T13:41:56;50.22;;;25.98;;
29732;SDS011;16643;43.158;25.302;2022-11-20T13:44:25;55.78;;;27.50;;
29732;SDS011;16643;43.158;25.302;2022-11-20T13:46:51;50.95;;;27.50;;
29732;SDS011;16643;43.158;25.302;2022-11-20T13:49:18;47.08;;;24.58;;
29732;SDS011;16643;43.158;25.302;2022-11-20T13:51:51;42.45;;;23.75;;
29732;SDS011;16643;43.158;25.302;2022-11-20T13:54:54;39.40;;;23.75;;
29732;SDS011;16643;43.158;25.302;2022-11-20T14:00:15;47.47;;;26.77;;
29732;SDS011;16643;43.158;25.302;2022-11-20T14:02:43;41.97;;;23.17;;
29732;SDS011;16643;43.158;25.302;2022-11-20T14:05:22;35.28;;;20.63;;
29732;SDS011;16643;43.158;25.302;2022-11-20T14:07:49;38.28;;;21.80;;
29732;SDS011;16643;43.158;25.302;2022-11-20T14:10:19;38.38;;;22.23;;
29732;SDS011;16643;43.158;25.302;2022-11-20T14:12:50;32.92;;;18.75;;
29732;SDS011;16643;43.158;25.302;2022-11-20T14:15:56;27.25;;;16.98;;
29732;SDS011;16643;43.158;25.302;2022-11-20T14:18:13;34.55;;;19.23;;
29732;SDS011;16643;43.158;25.302;2022-11-20T14:20:40;28.63;;;15.93;;
29732;SDS011;16643;43.158;25.302;2022-11-20T14:23:08;24.60;;;13.05;;
29732;SDS011;16643;43.158;25.302;2022-11-20T14:25:35;26.30;;;14.95;;
29732;SDS011;16643;43.158;25.302;2022-11-20T14:28:04;25.02;;;15.00;;
29732;SDS011;16643;43.158;25.302;2022-11-20T14:30:43;26.50;;;16.15;;
29732;SDS011;16643;43.158;25.302;2022-11-20T14:33:10;23.75;;;14.88;;
29732;SDS011;16643;43.158;25.302;2022-11-20T14:35:44;29.33;;;15.05;;
29732;SDS011;16643;43.158;25.302;2022-11-20T14:38:13;30.52;;;16.58;;
29732;SDS011;16643;43.158;25.302;2022-11-20T14:40:41;29.33;;;15.35;;
29732;SDS011;16643;43.158;25.302;2022-11-20T14:43:21;26.48;;;14.73;;
29732;SDS011;16643;43.158;25.302;2022-11-20T14:45:50;22.23;;;14.18;;
29732;SDS011;16643;43.158;25.302;2022-11-20T14:48:32;25.48;;;15.57;;
29732;SDS011;16643;43.158;25.302;2022-11-20T14:51:04;27.70;;;18.17;;
29732;SDS011;16643;43.158;25.302;2022-11-20T14:53:29;25.80;;;16.60;;
29732;SDS011;16643;43.158;25.302;2022-11-20T14:55:56;22.92;;;14.05;;
29732;SDS011;16643;43.158;25.302;2022-11-20T14:58:27;25.73;;;17.52;;
29732;SDS011;16643;43.158;25.302;2022-11-20T15:00:59;24.50;;;15.95;;
29732;SDS011;16643;43.158;25.302;2022-11-20T15:06:03;23.42;;;15.52;;
29732;SDS011;16643;43.158;25.302;2022-11-20T15:08:30;26.55;;;16.60;;
29732;SDS011;16643;43.158;25.302;2022-11-20T15:10:56;30.25;;;16.50;;
29732;SDS011;16643;43.158;25.302;2022-11-20T15:13:26;27.67;;;16.25;;
29732;SDS011;16643;43.158;25.302;2022-11-20T15:15:57;29.50;;;18.98;;
29732;SDS011;16643;43.158;25.302;2022-11-20T15:18:29;30.75;;;19.50;;
29732;SDS011;16643;43.158;25.302;2022-11-20T15:20:58;27.52;;;16.83;;
29732;SDS011;16643;43.158;25.302;2022-11-20T15:23:28;26.17;;;17.92;;
29732;SDS011;16643;43.158;25.302;2022-11-20T15:25:54;30.52;;;19.98;;
29732;SDS011;16643;43.158;25.302;2022-11-20T15:28:30;29.60;;;17.17;;
29732;SDS011;16643;43.158;25.302;2022-11-20T15:31:02;24.38;;;16.50;;
29732;SDS011;16643;43.158;25.302;2022-11-20T15:33:29;26.70;;;17.15;;
29732;SDS011;16643;43.158;25.302;2022-11-20T15:35:55;24.45;;;15.18;;
29732;SDS011;16643;43.158;25.302;2022-11-20T15:38:21;17.48;;;11.63;;
29732;SDS011;16643;43.158;25.302;2022-11-20T15:40:47;22.55;;;14.88;;
29732;SDS011;16643;43.158;25.302;2022-11-20T15:43:12;23.05;;;14.35;;
29732;SDS011;16643;43.158;25.302;2022-11-20T15:45:45;26.00;;;15.18;;
29732;SDS011;16643;43.158;25.302;2022-11-20T15:48:21;26.23;;;15.48;;
29732;SDS011;16643;43.158;25.302;2022-11-20T15:53:36;16.67;;;11.23;;
29732;SDS011;16643;43.158;25.302;2022-11-20T15:56:05;23.63;;;14.23;;
29732;SDS011;16643;43.158;25.302;2022-11-20T15:58:36;22.33;;;13.60;;
29732;SDS011;16643;43.158;25.302;2022-11-20T16:01:01;24.77;;;15.63;;
29732;SDS011;16643;43.158;25.302;2022-11-20T16:03:27;24.88;;;16.60;;
29732;SDS011;16643;43.158;25.302;2022-11-20T16:05:52;20.42;;;14.10;;
29732;SDS011;16643;43.158;25.302;2022-11-20T16:08:18;23.88;;;14.40;;
29732;SDS011;16643;43.158;25.302;2022-11-20T16:10:44;23.75;;;14.40;;
29732;SDS011;16643;43.158;25.302;2022-11-20T16:13:13;21.17;;;13.20;;
29732;SDS011;16643;43.158;25.302;2022-11-20T16:15:59;22.98;;;13.32;;
29732;SDS011;16643;43.158;25.302;2022-11-20T16:18:30;21.13;;;12.73;;
29732;SDS011;16643;43.158;25.302;2022-11-20T16:20:57;19.75;;;12.50;;
29732;SDS011;16643;43.158;25.302;2022-11-20T16:23:23;22.92;;;14.45;;
29732;SDS011;16643;43.158;25.302;2022-11-20T16:25:49;22.45;;;12.32;;
29732;SDS011;16643;43.158;25.302;2022-11-20T16:28:15;22.67;;;14.40;;
29732;SDS011;16643;43.158;25.302;2022-11-20T16:30:42;26.38;;;15.88;;
29732;SDS011;16643;43.158;25.302;2022-11-20T16:33:14;21.73;;;13.68;;
29732;SDS011;16643;43.158;25.302;2022-11-20T16:35:42;22.83;;;13.02;;
29732;SDS011;16643;43.158;25.302;2022-11-20T16:38:08;23.33;;;14.23;;
29732;SDS011;16643;43.158;25.302;2022-11-20T16:40:34;21.65;;;13.85;;